Time;durP1;ratioP1;P1;durP2;ratioP2;P2;SDS_P1;SDS_P2;PMS_P1;PMS_P2;Temp;Humidity;BMP_temperature;BMP_pressure;BME280_temperature;BME280_humidity;BME280_pressure;Samples;Min_cycle;Max_cycle;Signal;HPM_P1;HPM_P2
2021/05/27 00:02:15;;;;;;;2.03;0.70;;;8.50;99.90;;;;;;5072656;28;20049;-86
2021/05/27 00:04:41;;;;;;;1.10;0.40;;;8.50;99.90;;;;;;5076677;28;20023;-86
2021/05/27 00:07:07;;;;;;;1.20;0.30;;;8.50;99.90;;;;;;5075569;28;20021;-87
2021/05/27 00:09:35;;;;;;;1.42;0.40;;;8.80;99.90;;;;;;5066199;28;20783;-87
2021/05/27 00:12:01;;;;;;;1.10;0.50;;;8.50;99.90;;;;;;5056490;28;20048;-86
2021/05/27 00:14:26;;;;;;;1.25;0.50;;;8.40;99.90;;;;;;5055162;28;20469;-87
2021/05/27 00:16:52;;;;;;;1.88;0.60;;;8.50;99.90;;;;;;5065229;28;20031;-87
2021/05/27 00:19:18;;;;;;;1.08;0.40;;;8.40;99.90;;;;;;5088219;28;20485;-86
2021/05/27 00:21:44;;;;;;;1.85;0.47;;;8.90;99.90;;;;;;5077285;28;20029;-85
2021/05/27 00:24:09;;;;;;;1.85;0.63;;;8.40;99.90;;;;;;5077996;28;20024;-86
2021/05/27 00:26:35;;;;;;;0.63;0.40;;;8.40;99.90;;;;;;5075880;28;20036;-86
2021/05/27 00:29:01;;;;;;;2.28;0.45;;;8.40;99.90;;;;;;5088754;28;20437;-85
2021/05/27 00:31:27;;;;;;;1.30;0.43;;;8.40;99.90;;;;;;5090643;28;20029;-85
2021/05/27 00:33:52;;;;;;;3.15;0.50;;;8.50;99.90;;;;;;5075567;28;20480;-85
2021/05/27 00:36:18;;;;;;;2.75;0.70;;;8.40;99.90;;;;;;5079273;28;20609;-85
2021/05/27 00:38:44;;;;;;;2.15;0.50;;;8.40;99.90;;;;;;5055908;28;20090;-86
2021/05/27 00:41:10;;;;;;;1.63;0.65;;;8.40;99.90;;;;;;5063701;28;20043;-85
2021/05/27 00:43:36;;;;;;;1.58;0.60;;;8.50;99.90;;;;;;5071093;28;20033;-85
2021/05/27 00:46:01;;;;;;;1.92;0.50;;;8.80;99.90;;;;;;5069661;28;20029;-85
2021/05/27 00:51:11;;;;;;;1.30;0.40;;;8.40;99.90;;;;;;5054767;28;20035;-84
2021/05/27 00:53:38;;;;;;;1.85;0.50;;;8.40;99.90;;;;;;5053407;28;20029;-85
2021/05/27 00:56:04;;;;;;;0.73;0.40;;;8.40;99.90;;;;;;5070352;28;20036;-86
2021/05/27 00:58:31;;;;;;;1.13;0.55;;;8.40;99.90;;;;;;5073379;28;20029;-86
2021/05/27 01:00:57;;;;;;;1.92;0.50;;;8.40;99.90;;;;;;5089649;28;20029;-85
2021/05/27 01:03:23;;;;;;;2.08;0.70;;;8.40;99.90;;;;;;5089563;28;20052;-85
2021/05/27 01:05:48;;;;;;;1.20;0.60;;;8.40;99.90;;;;;;5090690;28;20427;-85
2021/05/27 01:08:15;;;;;;;1.42;0.70;;;8.40;99.90;;;;;;5082039;28;20116;-85
2021/05/27 01:10:40;;;;;;;1.10;0.60;;;8.40;99.90;;;;;;5074995;28;20028;-85
2021/05/27 01:13:06;;;;;;;1.90;0.80;;;8.40;99.90;;;;;;5073803;28;20394;-85
2021/05/27 01:15:34;;;;;;;1.70;0.50;;;8.40;99.90;;;;;;5073743;28;20438;-84
2021/05/27 01:18:08;;;;;;;2.13;0.80;;;8.80;99.90;;;;;;5068531;28;20028;-85
2021/05/27 01:20:34;;;;;;;2.28;0.70;;;8.40;99.90;;;;;;5073480;28;20033;-85
2021/05/27 01:23:01;;;;;;;1.98;0.70;;;8.40;99.90;;;;;;5067523;28;20025;-86
2021/05/27 01:25:27;;;;;;;3.08;0.77;;;8.60;99.90;;;;;;5083717;28;20047;-85
2021/05/27 01:27:52;;;;;;;1.70;0.70;;;8.50;99.90;;;;;;5074054;28;20393;-85
2021/05/27 01:30:19;;;;;;;2.47;0.70;;;8.40;99.90;;;;;;5061671;28;20050;-85
2021/05/27 01:32:44;;;;;;;1.77;0.73;;;8.40;99.90;;;;;;5090492;28;20132;-85
2021/05/27 01:35:19;;;;;;;1.40;0.50;;;8.40;99.90;;;;;;5075181;28;20060;-85
2021/05/27 01:37:45;;;;;;;2.13;0.80;;;8.50;99.90;;;;;;5087572;28;20025;-85
2021/05/27 01:40:17;;;;;;;2.13;0.57;;;8.50;99.90;;;;;;5081388;28;20036;-85
2021/05/27 01:42:42;;;;;;;1.17;0.50;;;8.50;99.90;;;;;;5070643;28;20028;-86
2021/05/27 01:45:11;;;;;;;2.30;0.70;;;8.50;99.90;;;;;;5071411;28;20029;-85
2021/05/27 01:47:36;;;;;;;1.65;0.68;;;8.50;99.90;;;;;;5077090;28;20036;-85
2021/05/27 01:50:08;;;;;;;2.83;0.70;;;8.50;99.90;;;;;;5054126;28;20037;-85
2021/05/27 01:52:34;;;;;;;2.10;0.82;;;8.50;99.90;;;;;;5053941;28;20025;-86
2021/05/27 01:54:59;;;;;;;2.80;0.70;;;9.00;99.90;;;;;;5052760;28;20488;-85
2021/05/27 01:57:27;;;;;;;2.22;0.85;;;8.50;99.90;;;;;;5067554;28;20041;-85
2021/05/27 01:59:53;;;;;;;1.65;0.75;;;8.50;99.90;;;;;;5058246;28;20033;-86
2021/05/27 02:02:18;;;;;;;1.42;0.65;;;8.50;99.90;;;;;;5056943;28;20075;-85
2021/05/27 02:04:46;;;;;;;1.20;0.55;;;8.50;99.90;;;;;;5059428;28;20393;-85
2021/05/27 02:07:13;;;;;;;1.48;0.60;;;8.40;99.90;;;;;;5079535;28;20107;-86
2021/05/27 02:09:40;;;;;;;2.00;0.70;;;8.40;99.90;;;;;;5079307;28;20081;-86
2021/05/27 02:12:06;;;;;;;3.17;0.75;;;8.40;99.90;;;;;;5094141;28;20016;-87
2021/05/27 02:14:33;;;;;;;2.33;0.52;;;8.40;99.90;;;;;;5078125;28;20035;-86
2021/05/27 02:16:59;;;;;;;0.95;0.45;;;8.70;99.90;;;;;;5075874;28;20040;-86
2021/05/27 02:19:24;;;;;;;1.52;0.63;;;8.40;99.90;;;;;;5058370;28;20032;-87
2021/05/27 02:21:51;;;;;;;1.27;0.60;;;8.40;99.90;;;;;;5066765;28;20040;-87
2021/05/27 02:24:17;;;;;;;2.17;0.82;;;8.40;99.90;;;;;;5060951;28;20029;-86
2021/05/27 02:26:43;;;;;;;1.90;0.65;;;8.40;99.90;;;;;;5076495;28;20097;-87
2021/05/27 02:29:09;;;;;;;1.35;0.50;;;8.40;99.90;;;;;;5088690;28;20040;-87
2021/05/27 02:31:37;;;;;;;1.60;0.65;;;8.40;99.90;;;;;;5058308;28;20033;-87
2021/05/27 02:34:03;;;;;;;1.17;0.47;;;8.40;99.90;;;;;;5059327;28;20052;-87
2021/05/27 02:36:32;;;;;;;1.20;0.50;;;8.40;99.90;;;;;;5073791;28;20530;-86
2021/05/27 02:38:58;;;;;;;1.95;0.60;;;8.30;99.90;;;;;;5088448;28;20044;-87
2021/05/27 02:41:24;;;;;;;1.92;0.80;;;8.30;99.90;;;;;;5074903;28;20025;-87
2021/05/27 02:43:50;;;;;;;2.90;0.60;;;8.30;99.90;;;;;;5059998;28;20037;-86
2021/05/27 02:46:17;;;;;;;1.05;0.50;;;8.30;99.90;;;;;;5080052;28;20051;-87
2021/05/27 02:48:43;;;;;;;1.10;0.50;;;8.20;99.90;;;;;;5095505;28;20472;-86
2021/05/27 02:51:08;;;;;;;1.27;0.60;;;8.30;99.90;;;;;;5094835;28;20028;-86
2021/05/27 02:53:34;;;;;;;1.70;0.65;;;8.30;99.90;;;;;;5078304;28;20039;-86
2021/05/27 02:56:00;;;;;;;0.90;0.50;;;8.30;99.90;;;;;;5060528;28;20087;-87
2021/05/27 02:58:26;;;;;;;1.92;0.70;;;8.30;99.90;;;;;;5056195;28;20124;-86
2021/05/27 03:00:52;;;;;;;1.50;0.60;;;8.30;99.90;;;;;;5056697;28;20389;-86
2021/05/27 03:03:21;;;;;;;1.27;0.55;;;8.30;99.90;;;;;;5058395;28;20036;-87
2021/05/27 03:05:47;;;;;;;1.00;0.57;;;8.30;99.90;;;;;;5078501;28;20020;-86
2021/05/27 03:08:12;;;;;;;1.90;0.50;;;8.40;99.90;;;;;;5076631;28;20013;-87
2021/05/27 03:10:38;;;;;;;2.55;0.50;;;8.30;99.90;;;;;;5079787;28;20635;-87
2021/05/27 03:13:04;;;;;;;3.25;0.70;;;8.40;99.90;;;;;;5094099;28;20050;-86
2021/05/27 03:15:30;;;;;;;1.50;0.70;;;8.40;99.90;;;;;;5078210;28;20128;-87
2021/05/27 03:18:07;;;;;;;1.70;0.70;;;8.40;99.90;;;;;;5078700;28;20082;-87
2021/05/27 03:20:33;;;;;;;5.47;0.85;;;8.40;99.90;;;;;;5093266;28;20028;-87
2021/05/27 03:22:59;;;;;;;1.30;0.50;;;8.20;99.90;;;;;;5089553;28;20086;-87
2021/05/27 03:25:25;;;;;;;1.50;0.60;;;8.30;99.90;;;;;;5076136;28;20119;-86
2021/05/27 03:27:51;;;;;;;1.83;0.80;;;8.40;99.90;;;;;;5082996;28;20489;-87
2021/05/27 03:30:17;;;;;;;1.33;0.60;;;8.30;99.90;;;;;;5074178;28;20020;-87
2021/05/27 03:32:45;;;;;;;1.10;0.50;;;8.30;99.90;;;;;;5072127;28;20397;-87
2021/05/27 03:35:11;;;;;;;3.10;0.73;;;8.30;99.90;;;;;;5056720;28;20488;-88
2021/05/27 03:37:37;;;;;;;2.08;0.57;;;8.60;99.90;;;;;;5068526;28;20025;-87
2021/05/27 03:40:14;;;;;;;2.10;0.60;;;8.40;99.90;;;;;;5073513;28;20475;-88
2021/05/27 03:42:50;;;;;;;1.58;0.70;;;8.50;99.90;;;;;;5056143;28;20091;-87
2021/05/27 03:45:28;;;;;;;1.77;0.68;;;8.40;99.90;;;;;;5055931;28;20546;-87
2021/05/27 03:47:54;;;;;;;1.20;0.70;;;8.40;99.90;;;;;;5072328;28;20052;-87
2021/05/27 03:50:23;;;;;;;2.08;0.60;;;8.40;99.90;;;;;;5076073;28;20052;-87
2021/05/27 03:52:49;;;;;;;1.45;0.60;;;8.40;99.90;;;;;;5074903;28;20033;-87
2021/05/27 03:55:17;;;;;;;2.10;0.85;;;8.40;99.90;;;;;;5093823;28;20024;-87
2021/05/27 03:57:48;;;;;;;2.83;0.80;;;8.40;99.90;;;;;;5094170;28;20032;-85
2021/05/27 04:03:05;;;;;;;1.08;0.55;;;8.30;99.90;;;;;;5078019;28;20082;-86
2021/05/27 04:08:17;;;;;;;1.48;0.70;;;8.40;99.90;;;;;;5073692;28;20082;-85
2021/05/27 04:10:43;;;;;;;1.98;0.90;;;8.30;99.90;;;;;;5056850;28;20036;-86
2021/05/27 04:13:09;;;;;;;2.05;0.90;;;8.20;99.90;;;;;;5057203;28;20121;-85
2021/05/27 04:15:37;;;;;;;1.92;1.00;;;8.20;99.90;;;;;;5055827;28;20037;-86
2021/05/27 04:18:09;;;;;;;2.25;0.95;;;8.20;99.90;;;;;;5055206;28;20040;-85
2021/05/27 04:20:54;;;;;;;1.55;0.80;;;8.20;99.90;;;;;;5054643;28;20029;-85
2021/05/27 04:23:39;;;;;;;1.48;0.70;;;8.20;99.90;;;;;;5083132;28;20032;-85
2021/05/27 04:26:09;;;;;;;2.37;1.10;;;8.10;99.90;;;;;;5071111;28;20071;-85
2021/05/27 04:28:36;;;;;;;2.10;1.00;;;8.20;99.90;;;;;;5069318;28;20044;-85
2021/05/27 04:31:10;;;;;;;1.97;1.00;;;8.10;99.90;;;;;;5069495;28;20033;-86
2021/05/27 04:33:49;;;;;;;2.50;1.20;;;8.10;99.90;;;;;;5055803;28;20032;-85
2021/05/27 04:36:17;;;;;;;2.30;0.93;;;8.20;99.90;;;;;;5062914;28;20408;-85
2021/05/27 04:38:43;;;;;;;3.77;1.20;;;8.10;99.90;;;;;;5090930;28;20640;-85
2021/05/27 04:41:10;;;;;;;2.67;1.17;;;8.60;99.90;;;;;;5090523;28;20081;-85
2021/05/27 04:43:38;;;;;;;2.63;1.10;;;8.20;99.90;;;;;;5075676;28;20044;-86
2021/05/27 04:46:04;;;;;;;3.08;1.23;;;8.30;99.90;;;;;;5063632;28;20078;-86
2021/05/27 04:48:29;;;;;;;3.70;1.13;;;8.40;99.90;;;;;;5073232;28;20423;-86
2021/05/27 04:50:55;;;;;;;5.20;1.30;;;8.40;99.90;;;;;;5073180;28;20029;-87
2021/05/27 04:53:22;;;;;;;3.53;1.10;;;8.50;99.90;;;;;;5067483;28;20537;-86
2021/05/27 04:55:48;;;;;;;2.60;1.20;;;8.60;99.90;;;;;;5057398;28;20060;-86
2021/05/27 04:58:15;;;;;;;3.72;1.52;;;8.60;99.90;;;;;;5070731;28;20040;-87
2021/05/27 05:00:41;;;;;;;2.65;1.30;;;8.60;99.90;;;;;;5054795;28;20040;-87
2021/05/27 05:03:07;;;;;;;2.50;1.20;;;8.60;99.90;;;;;;5056128;28;20029;-87
2021/05/27 05:05:34;;;;;;;3.35;1.35;;;8.60;99.90;;;;;;5054091;28;20545;-87
2021/05/27 05:08:01;;;;;;;2.22;1.13;;;8.80;99.90;;;;;;5073666;28;20088;-86
2021/05/27 05:10:29;;;;;;;2.10;0.98;;;8.80;99.90;;;;;;5072649;28;20153;-86
2021/05/27 05:12:55;;;;;;;3.00;1.20;;;9.30;99.90;;;;;;5068672;28;20039;-86
2021/05/27 05:15:28;;;;;;;2.30;1.23;;;9.30;99.90;;;;;;5053574;28;20036;-87
2021/05/27 05:18:20;;;;;;;1.92;1.02;;;9.10;99.90;;;;;;5083444;28;20028;-87
2021/05/27 05:20:50;;;;;;;2.55;1.13;;;9.20;99.90;;;;;;5067252;28;20144;-87
2021/05/27 05:23:17;;;;;;;2.58;1.00;;;9.30;99.90;;;;;;5061842;28;20582;-87
2021/05/27 05:25:43;;;;;;;2.58;0.93;;;9.30;99.90;;;;;;5073583;28;20032;-88
2021/05/27 05:28:11;;;;;;;2.28;0.80;;;9.40;99.90;;;;;;5091013;28;20055;-88
2021/05/27 05:30:37;;;;;;;2.65;1.08;;;9.40;99.90;;;;;;5073725;28;20487;-87
2021/05/27 05:33:03;;;;;;;2.25;1.02;;;9.50;99.90;;;;;;5058936;28;20029;-87
2021/05/27 05:35:30;;;;;;;2.58;0.95;;;9.50;99.90;;;;;;5066404;28;20044;-87
2021/05/27 05:37:56;;;;;;;1.45;0.80;;;9.60;99.90;;;;;;5058497;28;20466;-88
2021/05/27 05:40:24;;;;;;;3.75;0.70;;;9.60;99.90;;;;;;5065772;28;20032;-87
2021/05/27 05:42:51;;;;;;;4.78;1.10;;;9.80;99.90;;;;;;5061979;28;20106;-87
2021/05/27 05:45:18;;;;;;;2.97;0.70;;;9.90;99.90;;;;;;5058074;28;20092;-88
2021/05/27 05:47:45;;;;;;;1.52;0.73;;;10.00;99.90;;;;;;5067599;28;20412;-87
2021/05/27 05:50:12;;;;;;;3.10;0.88;;;10.10;99.90;;;;;;5050352;28;20056;-88
2021/05/27 05:52:47;;;;;;;2.17;0.88;;;10.20;99.90;;;;;;5051197;28;20033;-88
2021/05/27 05:55:12;;;;;;;2.00;0.70;;;10.10;99.90;;;;;;5071205;28;20060;-86
2021/05/27 05:57:38;;;;;;;1.35;0.60;;;10.20;99.90;;;;;;5072956;28;20036;-83
2021/05/27 06:00:06;;;;;;;1.77;0.65;;;10.40;99.90;;;;;;5063209;28;20024;-87
2021/05/27 06:02:32;;;;;;;2.00;0.80;;;10.30;99.90;;;;;;5086203;28;20495;-85
2021/05/27 06:04:57;;;;;;;2.47;0.70;;;10.50;99.90;;;;;;5069624;28;20025;-87
2021/05/27 06:07:23;;;;;;;4.60;0.80;;;10.70;99.90;;;;;;5071494;28;20020;-88
2021/05/27 06:09:52;;;;;;;2.20;0.77;;;10.70;99.90;;;;;;5087108;28;20029;-88
2021/05/27 06:12:17;;;;;;;1.52;0.60;;;10.90;99.90;;;;;;5070071;28;20090;-85
2021/05/27 06:14:43;;;;;;;3.42;0.63;;;10.90;99.90;;;;;;5067360;28;20472;-85
2021/05/27 06:17:08;;;;;;;2.58;0.60;;;11.20;99.90;;;;;;5061768;28;20484;-85
2021/05/27 06:19:34;;;;;;;2.72;0.60;;;11.10;99.90;;;;;;5064605;28;20099;-85
2021/05/27 06:22:00;;;;;;;2.53;0.80;;;11.20;99.90;;;;;;5060519;28;20675;-86
2021/05/27 06:24:25;;;;;;;4.28;0.65;;;11.40;99.90;;;;;;5070278;28;20049;-86
2021/05/27 06:26:51;;;;;;;0.77;0.38;;;11.60;99.90;;;;;;5068674;28;20024;-85
2021/05/27 06:29:16;;;;;;;1.05;0.38;;;11.60;99.90;;;;;;5070678;28;20107;-85
2021/05/27 06:31:45;;;;;;;3.83;0.50;;;11.50;99.90;;;;;;5069927;28;20177;-85
2021/05/27 06:34:11;;;;;;;3.63;0.60;;;11.60;99.90;;;;;;5082660;28;20021;-85
2021/05/27 06:36:37;;;;;;;1.10;0.32;;;11.70;99.90;;;;;;5066138;28;20138;-85
2021/05/27 06:39:03;;;;;;;1.20;0.70;;;11.80;99.90;;;;;;5049188;28;20495;-85
2021/05/27 06:41:29;;;;;;;1.58;0.60;;;11.80;99.90;;;;;;5049210;28;20028;-86
2021/05/27 06:43:54;;;;;;;1.13;0.50;;;11.80;99.90;;;;;;5084047;28;20115;-85
2021/05/27 06:46:21;;;;;;;1.48;0.45;;;11.80;99.90;;;;;;5081800;28;20093;-85
2021/05/27 06:48:46;;;;;;;2.15;0.60;;;11.90;99.90;;;;;;5072376;28;20111;-85
2021/05/27 06:51:12;;;;;;;1.15;0.50;;;11.90;99.90;;;;;;5070709;28;20722;-80
2021/05/27 06:53:38;;;;;;;1.25;0.50;;;12.20;99.90;;;;;;5057322;28;20070;-81
2021/05/27 06:56:04;;;;;;;2.72;0.60;;;12.30;99.90;;;;;;5056799;28;20102;-80
2021/05/27 06:58:29;;;;;;;2.05;0.50;;;12.50;99.90;;;;;;5060250;28;20029;-80
2021/05/27 07:00:55;;;;;;;0.90;0.40;;;12.60;99.90;;;;;;5075592;28;20032;-80
2021/05/27 07:03:22;;;;;;;1.15;0.40;;;12.40;99.90;;;;;;5092045;28;20801;-80
2021/05/27 07:05:48;;;;;;;2.63;0.47;;;12.50;99.90;;;;;;5076843;28;20028;-80
2021/05/27 07:08:14;;;;;;;2.83;0.45;;;12.70;99.90;;;;;;5074298;28;20031;-80
2021/05/27 07:10:39;;;;;;;1.20;0.40;;;12.70;99.90;;;;;;5073453;28;20024;-80
2021/05/27 07:13:07;;;;;;;0.90;0.43;;;12.70;99.90;;;;;;5076182;28;20089;-80
2021/05/27 07:15:33;;;;;;;0.90;0.40;;;12.80;99.90;;;;;;5074540;28;20051;-80
2021/05/27 07:17:59;;;;;;;1.85;0.35;;;12.90;99.90;;;;;;5075556;28;20107;-80
2021/05/27 07:20:26;;;;;;;2.22;0.40;;;12.80;99.90;;;;;;5075682;28;20055;-80
2021/05/27 07:22:53;;;;;;;0.80;0.40;;;12.70;99.90;;;;;;5093306;28;20206;-80
2021/05/27 07:25:20;;;;;;;0.82;0.40;;;12.50;99.90;;;;;;5076003;28;20032;-81
2021/05/27 07:27:49;;;;;;;1.48;0.38;;;12.30;99.90;;;;;;5077180;28;20052;-81
2021/05/27 07:30:15;;;;;;;2.20;0.47;;;12.20;99.90;;;;;;5075232;28;20025;-80
2021/05/27 07:32:41;;;;;;;1.65;0.30;;;12.20;99.90;;;;;;5077191;28;20064;-80
2021/05/27 07:35:08;;;;;;;0.85;0.40;;;12.20;99.90;;;;;;5073319;28;20025;-80
2021/05/27 07:37:34;;;;;;;1.15;0.40;;;12.20;99.90;;;;;;5092291;28;20333;-80
2021/05/27 07:39:59;;;;;;;3.10;0.50;;;12.20;99.90;;;;;;5071453;28;20048;-80
2021/05/27 07:42:25;;;;;;;1.02;0.35;;;12.10;99.90;;;;;;5073714;28;20036;-80
2021/05/27 07:44:57;;;;;;;1.58;0.40;;;12.10;99.90;;;;;;5072545;28;20035;-80
2021/05/27 07:47:22;;;;;;;1.25;0.40;;;12.10;99.90;;;;;;5074884;28;20025;-81
2021/05/27 07:49:51;;;;;;;2.50;0.38;;;12.00;99.90;;;;;;5077842;28;20021;-81
2021/05/27 07:52:17;;;;;;;1.45;0.40;;;12.10;99.90;;;;;;5076129;28;20020;-81
2021/05/27 07:54:43;;;;;;;1.45;0.40;;;12.40;99.90;;;;;;5074685;28;20028;-81
2021/05/27 07:57:09;;;;;;;1.80;0.50;;;12.60;99.90;;;;;;5075500;28;20055;-80
2021/05/27 07:59:35;;;;;;;1.50;0.38;;;13.00;99.90;;;;;;5076038;28;20608;-80
2021/05/27 08:02:01;;;;;;;0.85;0.30;;;13.30;99.90;;;;;;5076407;28;20051;-81
2021/05/27 08:04:26;;;;;;;0.63;0.40;;;13.60;99.90;;;;;;5075736;28;20512;-81
2021/05/27 08:06:52;;;;;;;2.85;0.28;;;13.80;99.90;;;;;;5074309;28;20078;-81
2021/05/27 08:09:18;;;;;;;1.08;0.30;;;13.80;99.90;;;;;;5074944;28;20033;-80
2021/05/27 08:11:44;;;;;;;2.17;0.70;;;13.90;99.90;;;;;;5076679;28;20023;-80
2021/05/27 08:14:10;;;;;;;1.45;0.32;;;14.20;99.90;;;;;;5091937;28;20032;-80
2021/05/27 08:16:37;;;;;;;2.65;0.30;;;14.40;99.90;;;;;;5078358;28;20036;-80
2021/05/27 08:19:03;;;;;;;1.52;0.50;;;14.50;99.90;;;;;;5078451;28;20472;-80
2021/05/27 08:21:30;;;;;;;1.23;0.30;;;14.40;99.90;;;;;;5080947;28;20036;-80
2021/05/27 08:23:56;;;;;;;1.10;0.40;;;14.70;99.60;;;;;;5075615;28;20025;-79
2021/05/27 08:26:22;;;;;;;0.98;0.40;;;14.80;99.90;;;;;;5092831;28;20389;-81
2021/05/27 08:28:48;;;;;;;2.22;0.50;;;14.80;98.90;;;;;;5080184;28;20029;-82
2021/05/27 08:31:14;;;;;;;1.70;0.50;;;14.80;97.90;;;;;;5077365;28;20043;-83
2021/05/27 08:33:40;;;;;;;1.45;0.50;;;15.20;97.30;;;;;;5080623;28;20220;-83
2021/05/27 08:36:06;;;;;;;1.05;0.50;;;15.30;96.70;;;;;;5077483;28;20095;-83
2021/05/27 08:38:32;;;;;;;1.80;0.40;;;15.40;97.00;;;;;;5075915;28;20088;-83
2021/05/27 08:40:58;;;;;;;1.90;0.50;;;15.50;97.30;;;;;;5074729;28;20051;-83
2021/05/27 08:43:24;;;;;;;1.23;0.40;;;15.30;98.30;;;;;;5075490;28;20036;-85
2021/05/27 08:45:50;;;;;;;1.50;0.50;;;14.80;97.80;;;;;;5077755;28;20570;-84
2021/05/27 08:48:17;;;;;;;0.73;0.38;;;14.50;99.30;;;;;;5076380;28;20028;-83
2021/05/27 08:50:45;;;;;;;2.20;0.40;;;14.20;99.40;;;;;;5075755;28;20032;-83
2021/05/27 08:53:14;;;;;;;0.85;0.40;;;14.40;98.20;;;;;;5076540;28;20078;-83
2021/05/27 08:55:40;;;;;;;2.30;0.45;;;14.80;97.00;;;;;;5077710;28;20107;-82
2021/05/27 08:58:07;;;;;;;1.05;0.32;;;15.20;95.90;;;;;;5074059;28;20805;-83
2021/05/27 09:00:32;;;;;;;1.38;0.38;;;15.70;96.30;;;;;;5076976;28;20082;-83
2021/05/27 09:03:01;;;;;;;1.73;0.40;;;15.60;94.80;;;;;;5076026;28;20021;-83
2021/05/27 09:05:28;;;;;;;0.52;0.30;;;15.40;94.90;;;;;;5068842;28;20028;-83
2021/05/27 09:07:54;;;;;;;1.60;0.43;;;14.90;93.40;;;;;;5077695;28;20103;-83
2021/05/27 09:10:20;;;;;;;1.60;0.40;;;14.60;97.40;;;;;;5091401;28;20050;-84
2021/05/27 09:12:46;;;;;;;0.98;0.40;;;15.00;98.10;;;;;;5074481;28;20054;-83
2021/05/27 09:15:17;;;;;;;2.17;0.40;;;15.20;97.00;;;;;;5074333;28;20100;-85
2021/05/27 09:17:45;;;;;;;0.45;0.20;;;15.50;95.60;;;;;;5077994;28;20113;-82
2021/05/27 09:20:19;;;;;;;1.92;0.40;;;15.80;93.20;;;;;;5075062;28;20130;-83
2021/05/27 09:22:46;;;;;;;2.75;0.57;;;16.00;92.80;;;;;;5075000;28;20187;-83
2021/05/27 09:25:28;;;;;;;0.93;0.40;;;16.20;91.20;;;;;;5077531;28;20020;-82
2021/05/27 09:27:55;;;;;;;0.75;0.20;;;16.50;91.20;;;;;;5075306;28;20111;-83
2021/05/27 09:30:22;;;;;;;1.65;0.32;;;17.20;91.40;;;;;;5069600;28;20051;-82
2021/05/27 09:32:50;;;;;;;0.88;0.30;;;17.40;90.20;;;;;;5080052;28;20044;-82
2021/05/27 09:35:17;;;;;;;0.70;0.30;;;17.80;86.70;;;;;;5081841;28;20013;-82
2021/05/27 09:37:51;;;;;;;1.35;0.30;;;17.80;83.70;;;;;;5079094;28;20047;-84
2021/05/27 09:40:44;;;;;;;3.33;0.40;;;17.50;86.20;;;;;;5076212;28;20039;-84
2021/05/27 09:43:11;;;;;;;0.63;0.20;;;16.80;81.90;;;;;;5071030;28;20037;-83
2021/05/27 09:45:39;;;;;;;1.70;0.50;;;17.20;84.40;;;;;;5070316;28;20020;-83
2021/05/27 09:48:19;;;;;;;3.25;0.35;;;17.70;82.50;;;;;;5077506;28;20021;-84
2021/05/27 09:50:44;;;;;;;1.70;0.30;;;17.40;79.70;;;;;;5089167;28;20523;-83
2021/05/27 09:53:22;;;;;;;1.48;0.30;;;16.70;80.30;;;;;;5075489;28;20013;-84
2021/05/27 09:55:48;;;;;;;1.10;0.30;;;16.40;84.30;;;;;;5090776;28;20081;-83
2021/05/27 09:58:15;;;;;;;1.60;0.43;;;16.10;85.00;;;;;;5078695;28;20037;-83
2021/05/27 10:00:43;;;;;;;1.00;0.25;;;15.90;85.70;;;;;;5076138;28;20044;-83
2021/05/27 10:03:41;;;;;;;2.35;0.30;;;15.50;89.10;;;;;;5085015;28;20020;-83
2021/05/27 10:06:11;;;;;;;0.60;0.30;;;15.10;92.00;;;;;;5068588;22;20056;-78
2021/05/27 10:08:51;;;;;;;2.47;0.30;;;15.00;91.40;;;;;;5078110;28;20158;-80
2021/05/27 10:11:19;;;;;;;1.00;0.30;;;15.20;92.50;;;;;;5072354;28;20016;-80
2021/05/27 10:13:45;;;;;;;1.95;0.22;;;15.10;90.50;;;;;;5079915;28;20020;-80
2021/05/27 10:16:14;;;;;;;1.77;0.30;;;15.20;90.50;;;;;;5080122;28;20027;-79
2021/05/27 10:18:41;;;;;;;1.20;0.30;;;15.00;91.10;;;;;;5086215;28;20040;-81
2021/05/27 10:21:07;;;;;;;1.80;0.40;;;15.00;90.80;;;;;;5066614;28;20051;-79
2021/05/27 10:23:33;;;;;;;1.67;0.32;;;15.10;91.50;;;;;;5078023;28;20024;-80
2021/05/27 10:25:59;;;;;;;1.08;0.30;;;15.60;91.60;;;;;;5062959;28;20033;-81
2021/05/27 10:28:26;;;;;;;0.98;0.40;;;15.60;90.20;;;;;;5076016;28;20043;-82
2021/05/27 10:30:52;;;;;;;2.13;0.52;;;15.50;91.90;;;;;;5075349;28;20056;-83
2021/05/27 10:33:20;;;;;;;2.55;0.60;;;15.30;91.00;;;;;;5078480;28;20564;-80
2021/05/27 10:36:04;;;;;;;1.08;0.38;;;14.90;90.90;;;;;;5081041;28;20032;-81
2021/05/27 10:38:40;;;;;;;1.98;0.75;;;14.70;91.40;;;;;;5068308;28;20086;-81
2021/05/27 10:41:17;;;;;;;1.35;0.50;;;14.50;92.20;;;;;;5097100;28;20020;-80
2021/05/27 10:44:01;;;;;;;1.45;0.30;;;14.40;92.10;;;;;;5093016;28;20012;-81
2021/05/27 10:46:28;;;;;;;2.75;0.43;;;14.40;92.20;;;;;;5085523;28;20100;-81
2021/05/27 10:48:54;;;;;;;3.38;0.38;;;14.40;91.40;;;;;;5079905;28;20063;-81
2021/05/27 10:51:29;;;;;;;3.92;0.30;;;14.40;91.60;;;;;;5080196;28;20036;-81
2021/05/27 10:53:59;;;;;;;1.10;0.30;;;14.40;91.20;;;;;;5080108;28;20024;-81
2021/05/27 10:56:34;;;;;;;0.55;0.30;;;14.40;92.10;;;;;;5079273;28;20013;-80
2021/05/27 10:59:00;;;;;;;2.05;0.63;;;14.40;91.90;;;;;;5079912;28;20478;-80
2021/05/27 11:01:28;;;;;;;2.22;0.47;;;14.60;92.30;;;;;;5079682;28;20027;-81
2021/05/27 11:03:59;;;;;;;1.08;0.35;;;14.70;91.80;;;;;;5079846;28;20169;-81
2021/05/27 11:06:38;;;;;;;2.78;0.60;;;14.70;92.50;;;;;;5094012;28;20026;-81
2021/05/27 11:11:43;;;;;;;4.03;0.50;;;14.80;92.80;;;;;;5096894;28;20032;-81
2021/05/27 11:14:27;;;;;;;1.35;0.47;;;14.90;92.70;;;;;;5092924;28;20028;-80
2021/05/27 11:20:11;;;;;;;2.00;0.43;;;14.80;93.50;;;;;;5089275;28;20113;-81
2021/05/27 11:22:46;;;;;;;0.40;0.30;;;14.90;92.80;;;;;;5084691;28;20096;-81
2021/05/27 11:25:15;;;;;;;1.63;0.50;;;15.10;93.20;;;;;;5072423;28;20080;-81
2021/05/27 11:27:52;;;;;;;1.23;0.40;;;15.30;92.80;;;;;;5078934;28;20031;-87
2021/05/27 11:30:23;;;;;;;0.60;0.30;;;15.60;93.40;;;;;;5080699;28;20427;-81
2021/05/27 11:32:54;;;;;;;2.55;0.55;;;15.80;91.20;;;;;;5077416;28;20024;-83
2021/05/27 11:35:23;;;;;;;0.80;0.30;;;16.00;90.70;;;;;;5063355;28;20017;-81
2021/05/27 11:37:50;;;;;;;1.42;0.50;;;16.30;90.10;;;;;;5071290;28;20035;-81
2021/05/27 11:40:19;;;;;;;0.95;0.30;;;16.40;90.80;;;;;;5057060;28;20031;-81
2021/05/27 11:42:51;;;;;;;1.20;0.40;;;16.70;90.70;;;;;;5086732;28;20388;-83
2021/05/27 11:45:20;;;;;;;2.28;0.45;;;16.80;89.70;;;;;;5081754;28;20035;-82
2021/05/27 11:50:42;;;;;;;1.58;0.50;;;17.20;84.70;;;;;;5087459;28;20033;-82
2021/05/27 11:53:09;;;;;;;2.10;0.43;;;17.40;84.20;;;;;;5067328;28;20035;-82
2021/05/27 11:55:35;;;;;;;1.15;0.30;;;17.50;85.60;;;;;;5099406;28;20024;-82
2021/05/27 11:58:02;;;;;;;2.63;0.30;;;17.40;85.30;;;;;;5082670;28;20126;-82
2021/05/27 12:00:28;;;;;;;1.15;0.32;;;17.10;85.20;;;;;;5090728;28;20028;-82
2021/05/27 12:02:57;;;;;;;0.82;0.30;;;17.70;84.20;;;;;;5089755;28;20017;-82
2021/05/27 12:05:30;;;;;;;1.30;0.40;;;18.10;84.20;;;;;;5087027;28;20027;-82
2021/05/27 12:08:00;;;;;;;0.32;0.20;;;18.80;83.70;;;;;;5069770;28;20459;-83
2021/05/27 12:10:28;;;;;;;0.57;0.20;;;19.40;80.30;;;;;;5093413;28;20013;-82
2021/05/27 12:12:54;;;;;;;3.78;0.40;;;19.30;78.20;;;;;;5086850;28;20085;-82
2021/05/27 12:15:22;;;;;;;1.80;0.40;;;18.50;80.20;;;;;;5101409;28;20023;-82
2021/05/27 12:17:53;;;;;;;1.45;0.40;;;17.90;80.10;;;;;;5080740;28;20024;-82
2021/05/27 12:20:31;;;;;;;0.73;0.30;;;17.50;81.30;;;;;;5098906;28;20020;-82
2021/05/27 12:23:06;;;;;;;1.70;0.30;;;17.30;82.00;;;;;;5073254;28;20031;-81
2021/05/27 12:25:33;;;;;;;2.67;0.30;;;17.70;81.60;;;;;;5081157;28;20536;-83
2021/05/27 12:28:13;;;;;;;0.85;0.30;;;18.40;79.80;;;;;;5064484;28;20087;-82
2021/05/27 12:30:44;;;;;;;0.95;0.25;;;18.40;78.60;;;;;;5087440;28;20035;-82
2021/05/27 12:33:16;;;;;;;1.00;0.32;;;18.60;76.20;;;;;;5100620;28;20099;-82
2021/05/27 12:35:42;;;;;;;1.38;0.30;;;19.30;75.40;;;;;;5091785;28;20117;-82
2021/05/27 12:38:20;;;;;;;1.00;0.30;;;20.10;73.50;;;;;;5080539;28;20472;-80
2021/05/27 12:40:50;;;;;;;1.15;0.32;;;20.50;68.40;;;;;;5091280;28;20048;-81
2021/05/27 12:43:26;;;;;;;0.57;0.20;;;20.50;68.70;;;;;;5088243;28;20043;-81
2021/05/27 12:45:53;;;;;;;0.52;0.20;;;20.70;68.30;;;;;;5089114;28;20481;-81
2021/05/27 12:48:20;;;;;;;1.05;0.30;;;20.60;68.40;;;;;;5057765;28;20024;-82
2021/05/27 12:51:04;;;;;;;2.78;0.40;;;20.10;68.30;;;;;;5075819;28;20028;-83
2021/05/27 12:53:38;;;;;;;1.73;0.40;;;19.60;70.70;;;;;;5088384;28;20027;-80
2021/05/27 12:56:24;;;;;;;1.88;0.30;;;19.40;69.90;;;;;;5100012;28;20024;-81
2021/05/27 12:59:02;;;;;;;0.98;0.50;;;19.20;71.90;;;;;;5070391;28;20048;-83
2021/05/27 13:01:31;;;;;;;1.27;0.20;;;19.30;72.70;;;;;;5083196;28;20042;-83
2021/05/27 13:03:57;;;;;;;1.17;0.35;;;19.00;73.40;;;;;;5090875;28;20208;-80
2021/05/27 13:06:29;;;;;;;1.08;0.30;;;18.90;72.00;;;;;;5092108;28;20058;-81
2021/05/27 13:09:01;;;;;;;1.50;0.43;;;18.60;73.80;;;;;;5089648;28;20027;-81
2021/05/27 13:11:34;;;;;;;0.80;0.30;;;18.30;72.60;;;;;;5089939;28;20043;-83
2021/05/27 13:14:19;;;;;;;2.45;0.40;;;18.00;73.00;;;;;;5085549;28;20024;-83